sensor_id;sensor_type;location;lat;lon;timestamp;P1;durP1;ratioP1;P2;durP2;ratioP2
51854;SDS011;37895;53.240;6.572;2023-12-20T00:00:35;17.73;;;5.78;;
51854;SDS011;37895;53.240;6.572;2023-12-20T00:03:03;16.42;;;5.38;;
51854;SDS011;37895;53.240;6.572;2023-12-20T00:05:29;15.38;;;5.00;;
51854;SDS011;37895;53.240;6.572;2023-12-20T00:07:57;17.13;;;5.40;;
51854;SDS011;37895;53.240;6.572;2023-12-20T00:10:23;14.75;;;5.15;;
51854;SDS011;37895;53.240;6.572;2023-12-20T00:12:48;18.85;;;4.82;;
51854;SDS011;37895;53.240;6.572;2023-12-20T00:15:14;19.65;;;5.35;;
51854;SDS011;37895;53.240;6.572;2023-12-20T00:17:39;16.48;;;5.80;;
51854;SDS011;37895;53.240;6.572;2023-12-20T00:20:05;14.07;;;4.32;;
51854;SDS011;37895;53.240;6.572;2023-12-20T00:22:31;18.15;;;5.82;;
51854;SDS011;37895;53.240;6.572;2023-12-20T00:24:57;25.88;;;7.13;;
51854;SDS011;37895;53.240;6.572;2023-12-20T00:27:22;22.67;;;7.53;;
51854;SDS011;37895;53.240;6.572;2023-12-20T00:29:48;23.50;;;8.15;;
51854;SDS011;37895;53.240;6.572;2023-12-20T00:32:15;20.05;;;7.97;;
51854;SDS011;37895;53.240;6.572;2023-12-20T00:34:41;18.33;;;8.35;;
51854;SDS011;37895;53.240;6.572;2023-12-20T00:37:08;23.92;;;9.07;;
51854;SDS011;37895;53.240;6.572;2023-12-20T00:39:33;26.98;;;9.55;;
51854;SDS011;37895;53.240;6.572;2023-12-20T00:41:59;26.02;;;9.13;;
51854;SDS011;37895;53.240;6.572;2023-12-20T00:44:25;20.15;;;7.57;;
51854;SDS011;37895;53.240;6.572;2023-12-20T00:46:50;21.00;;;7.97;;
51854;SDS011;37895;53.240;6.572;2023-12-20T00:49:16;19.23;;;6.00;;
51854;SDS011;37895;53.240;6.572;2023-12-20T00:51:41;12.93;;;5.25;;
51854;SDS011;37895;53.240;6.572;2023-12-20T00:54:07;18.05;;;5.78;;
51854;SDS011;37895;53.240;6.572;2023-12-20T00:56:33;12.77;;;5.07;;
51854;SDS011;37895;53.240;6.572;2023-12-20T00:58:58;11.88;;;4.88;;
51854;SDS011;37895;53.240;6.572;2023-12-20T01:01:24;14.55;;;5.63;;
51854;SDS011;37895;53.240;6.572;2023-12-20T01:03:49;19.70;;;5.90;;
51854;SDS011;37895;53.240;6.572;2023-12-20T01:06:16;14.30;;;4.93;;
51854;SDS011;37895;53.240;6.572;2023-12-20T01:08:42;17.92;;;4.97;;
51854;SDS011;37895;53.240;6.572;2023-12-20T01:11:07;15.30;;;5.03;;
51854;SDS011;37895;53.240;6.572;2023-12-20T01:13:33;16.48;;;5.63;;
51854;SDS011;37895;53.240;6.572;2023-12-20T01:15:59;15.30;;;5.03;;
51854;SDS011;37895;53.240;6.572;2023-12-20T01:18:24;22.42;;;6.13;;
51854;SDS011;37895;53.240;6.572;2023-12-20T01:20:50;18.80;;;5.43;;
51854;SDS011;37895;53.240;6.572;2023-12-20T01:23:16;18.73;;;6.63;;
51854;SDS011;37895;53.240;6.572;2023-12-20T01:25:41;15.52;;;5.93;;
51854;SDS011;37895;53.240;6.572;2023-12-20T01:28:08;18.95;;;6.93;;
51854;SDS011;37895;53.240;6.572;2023-12-20T01:30:33;21.58;;;6.95;;
51854;SDS011;37895;53.240;6.572;2023-12-20T01:33:00;21.65;;;8.18;;
51854;SDS011;37895;53.240;6.572;2023-12-20T01:35:26;22.88;;;6.50;;
51854;SDS011;37895;53.240;6.572;2023-12-20T01:37:52;26.90;;;7.18;;
51854;SDS011;37895;53.240;6.572;2023-12-20T01:40:21;19.73;;;6.30;;
51854;SDS011;37895;53.240;6.572;2023-12-20T01:42:47;19.85;;;6.07;;
51854;SDS011;37895;53.240;6.572;2023-12-20T01:45:22;20.23;;;6.03;;
51854;SDS011;37895;53.240;6.572;2023-12-20T01:47:48;17.42;;;5.90;;
51854;SDS011;37895;53.240;6.572;2023-12-20T01:50:13;25.13;;;5.95;;
51854;SDS011;37895;53.240;6.572;2023-12-20T01:52:41;20.50;;;7.03;;
51854;SDS011;37895;53.240;6.572;2023-12-20T01:55:08;17.00;;;6.18;;
51854;SDS011;37895;53.240;6.572;2023-12-20T01:57:39;18.95;;;6.10;;
51854;SDS011;37895;53.240;6.572;2023-12-20T02:00:06;20.48;;;6.13;;
51854;SDS011;37895;53.240;6.572;2023-12-20T02:02:34;19.60;;;5.65;;
51854;SDS011;37895;53.240;6.572;2023-12-20T02:05:03;16.77;;;6.35;;
51854;SDS011;37895;53.240;6.572;2023-12-20T02:07:30;11.50;;;4.53;;
51854;SDS011;37895;53.240;6.572;2023-12-20T02:09:56;17.52;;;5.40;;
51854;SDS011;37895;53.240;6.572;2023-12-20T02:12:22;14.40;;;5.82;;
51854;SDS011;37895;53.240;6.572;2023-12-20T02:14:48;11.50;;;5.30;;
51854;SDS011;37895;53.240;6.572;2023-12-20T02:17:14;16.70;;;5.78;;
51854;SDS011;37895;53.240;6.572;2023-12-20T02:19:40;17.23;;;5.57;;
51854;SDS011;37895;53.240;6.572;2023-12-20T02:22:12;16.27;;;5.90;;
51854;SDS011;37895;53.240;6.572;2023-12-20T02:24:38;18.75;;;5.88;;
51854;SDS011;37895;53.240;6.572;2023-12-20T02:27:05;18.08;;;5.88;;
51854;SDS011;37895;53.240;6.572;2023-12-20T02:29:32;20.10;;;5.82;;
51854;SDS011;37895;53.240;6.572;2023-12-20T02:31:58;15.05;;;5.70;;
51854;SDS011;37895;53.240;6.572;2023-12-20T02:34:24;19.35;;;5.72;;
51854;SDS011;37895;53.240;6.572;2023-12-20T02:36:49;21.55;;;6.63;;
51854;SDS011;37895;53.240;6.572;2023-12-20T02:39:15;21.90;;;6.63;;
51854;SDS011;37895;53.240;6.572;2023-12-20T02:41:41;21.40;;;6.22;;
51854;SDS011;37895;53.240;6.572;2023-12-20T02:44:07;18.73;;;6.65;;
51854;SDS011;37895;53.240;6.572;2023-12-20T02:46:33;19.50;;;6.30;;
51854;SDS011;37895;53.240;6.572;2023-12-20T02:48:58;19.98;;;6.22;;
51854;SDS011;37895;53.240;6.572;2023-12-20T02:51:24;21.77;;;6.95;;
51854;SDS011;37895;53.240;6.572;2023-12-20T02:53:49;21.38;;;6.07;;
51854;SDS011;37895;53.240;6.572;2023-12-20T02:56:15;21.42;;;6.78;;
51854;SDS011;37895;53.240;6.572;2023-12-20T02:58:40;18.47;;;5.93;;
51854;SDS011;37895;53.240;6.572;2023-12-20T03:01:06;24.67;;;6.40;;
51854;SDS011;37895;53.240;6.572;2023-12-20T03:03:32;28.95;;;7.50;;
51854;SDS011;37895;53.240;6.572;2023-12-20T03:05:57;33.92;;;8.60;;
51854;SDS011;37895;53.240;6.572;2023-12-20T03:08:23;25.55;;;7.13;;
51854;SDS011;37895;53.240;6.572;2023-12-20T03:10:49;33.92;;;7.72;;
51854;SDS011;37895;53.240;6.572;2023-12-20T03:13:15;27.23;;;8.02;;
51854;SDS011;37895;53.240;6.572;2023-12-20T03:15:41;27.58;;;8.00;;
51854;SDS011;37895;53.240;6.572;2023-12-20T03:18:06;29.58;;;7.30;;
51854;SDS011;37895;53.240;6.572;2023-12-20T03:20:32;23.55;;;7.53;;
51854;SDS011;37895;53.240;6.572;2023-12-20T03:23:00;30.02;;;8.27;;
51854;SDS011;37895;53.240;6.572;2023-12-20T03:25:26;28.85;;;8.48;;
51854;SDS011;37895;53.240;6.572;2023-12-20T03:27:52;23.92;;;8.23;;
51854;SDS011;37895;53.240;6.572;2023-12-20T03:30:18;31.33;;;8.55;;
51854;SDS011;37895;53.240;6.572;2023-12-20T03:32:44;26.38;;;7.28;;
51854;SDS011;37895;53.240;6.572;2023-12-20T03:35:10;30.58;;;7.70;;
51854;SDS011;37895;53.240;6.572;2023-12-20T03:37:36;16.25;;;5.93;;
51854;SDS011;37895;53.240;6.572;2023-12-20T03:40:01;22.98;;;8.18;;
51854;SDS011;37895;53.240;6.572;2023-12-20T03:42:27;26.52;;;6.82;;
51854;SDS011;37895;53.240;6.572;2023-12-20T03:44:53;25.77;;;7.30;;
51854;SDS011;37895;53.240;6.572;2023-12-20T03:47:18;32.10;;;8.50;;
51854;SDS011;37895;53.240;6.572;2023-12-20T03:52:10;23.85;;;7.13;;
51854;SDS011;37895;53.240;6.572;2023-12-20T03:54:35;35.55;;;7.95;;
51854;SDS011;37895;53.240;6.572;2023-12-20T03:57:01;27.80;;;7.78;;
51854;SDS011;37895;53.240;6.572;2023-12-20T03:59:26;28.63;;;9.23;;
51854;SDS011;37895;53.240;6.572;2023-12-20T04:01:52;29.92;;;8.48;;
51854;SDS011;37895;53.240;6.572;2023-12-20T04:04:18;41.70;;;9.50;;
51854;SDS011;37895;53.240;6.572;2023-12-20T04:06:44;35.40;;;9.23;;
51854;SDS011;37895;53.240;6.572;2023-12-20T04:09:10;25.15;;;7.70;;
51854;SDS011;37895;53.240;6.572;2023-12-20T04:11:36;33.35;;;8.00;;
51854;SDS011;37895;53.240;6.572;2023-12-20T04:16:27;36.47;;;8.18;;
51854;SDS011;37895;53.240;6.572;2023-12-20T04:18:53;31.05;;;9.20;;
51854;SDS011;37895;53.240;6.572;2023-12-20T04:21:18;36.30;;;9.15;;
51854;SDS011;37895;53.240;6.572;2023-12-20T04:23:44;36.38;;;8.48;;
51854;SDS011;37895;53.240;6.572;2023-12-20T04:26:10;34.25;;;9.32;;
51854;SDS011;37895;53.240;6.572;2023-12-20T04:28:35;36.35;;;8.73;;
51854;SDS011;37895;53.240;6.572;2023-12-20T04:31:01;23.83;;;8.20;;
51854;SDS011;37895;53.240;6.572;2023-12-20T04:33:27;37.65;;;8.65;;
51854;SDS011;37895;53.240;6.572;2023-12-20T04:35:52;29.15;;;8.20;;
51854;SDS011;37895;53.240;6.572;2023-12-20T04:38:18;28.98;;;8.52;;
51854;SDS011;37895;53.240;6.572;2023-12-20T04:40:43;30.45;;;8.20;;
51854;SDS011;37895;53.240;6.572;2023-12-20T04:43:09;27.98;;;8.80;;
51854;SDS011;37895;53.240;6.572;2023-12-20T04:45:35;29.90;;;8.15;;
51854;SDS011;37895;53.240;6.572;2023-12-20T04:48:01;29.85;;;8.38;;
51854;SDS011;37895;53.240;6.572;2023-12-20T04:50:27;30.77;;;9.05;;
51854;SDS011;37895;53.240;6.572;2023-12-20T04:52:53;28.65;;;7.88;;
51854;SDS011;37895;53.240;6.572;2023-12-20T04:55:18;29.33;;;7.75;;
51854;SDS011;37895;53.240;6.572;2023-12-20T04:57:44;31.17;;;8.27;;
51854;SDS011;37895;53.240;6.572;2023-12-20T05:00:10;32.42;;;9.25;;
51854;SDS011;37895;53.240;6.572;2023-12-20T05:02:36;29.40;;;8.35;;
51854;SDS011;37895;53.240;6.572;2023-12-20T05:05:02;24.42;;;7.50;;
51854;SDS011;37895;53.240;6.572;2023-12-20T05:07:27;27.77;;;9.73;;
51854;SDS011;37895;53.240;6.572;2023-12-20T05:09:53;30.23;;;8.93;;
51854;SDS011;37895;53.240;6.572;2023-12-20T05:12:19;28.50;;;8.15;;
51854;SDS011;37895;53.240;6.572;2023-12-20T05:14:45;30.33;;;8.35;;
51854;SDS011;37895;53.240;6.572;2023-12-20T05:17:11;30.40;;;7.95;;
51854;SDS011;37895;53.240;6.572;2023-12-20T05:19:36;32.00;;;8.30;;
51854;SDS011;37895;53.240;6.572;2023-12-20T05:22:02;30.88;;;8.65;;
51854;SDS011;37895;53.240;6.572;2023-12-20T05:24:28;34.70;;;8.13;;
51854;SDS011;37895;53.240;6.572;2023-12-20T05:26:54;31.35;;;8.02;;
51854;SDS011;37895;53.240;6.572;2023-12-20T05:29:20;32.17;;;8.80;;
51854;SDS011;37895;53.240;6.572;2023-12-20T05:31:45;35.65;;;8.75;;
51854;SDS011;37895;53.240;6.572;2023-12-20T05:34:11;24.67;;;8.05;;
51854;SDS011;37895;53.240;6.572;2023-12-20T05:36:37;26.35;;;8.43;;
51854;SDS011;37895;53.240;6.572;2023-12-20T05:39:04;30.35;;;7.95;;
51854;SDS011;37895;53.240;6.572;2023-12-20T05:41:30;30.33;;;7.85;;
51854;SDS011;37895;53.240;6.572;2023-12-20T05:46:23;33.13;;;9.27;;
51854;SDS011;37895;53.240;6.572;2023-12-20T05:48:49;27.48;;;8.05;;
51854;SDS011;37895;53.240;6.572;2023-12-20T05:51:16;28.15;;;8.25;;
51854;SDS011;37895;53.240;6.572;2023-12-20T05:53:42;39.47;;;9.23;;
51854;SDS011;37895;53.240;6.572;2023-12-20T05:56:09;31.00;;;8.48;;
51854;SDS011;37895;53.240;6.572;2023-12-20T05:58:35;28.55;;;8.57;;
51854;SDS011;37895;53.240;6.572;2023-12-20T06:01:01;30.73;;;8.80;;
51854;SDS011;37895;53.240;6.572;2023-12-20T06:03:29;34.67;;;8.82;;
51854;SDS011;37895;53.240;6.572;2023-12-20T06:05:54;29.92;;;8.48;;
51854;SDS011;37895;53.240;6.572;2023-12-20T06:08:20;35.95;;;9.40;;
51854;SDS011;37895;53.240;6.572;2023-12-20T06:10:46;32.03;;;9.10;;
51854;SDS011;37895;53.240;6.572;2023-12-20T06:13:11;30.73;;;9.00;;
51854;SDS011;37895;53.240;6.572;2023-12-20T06:15:38;26.45;;;7.88;;
51854;SDS011;37895;53.240;6.572;2023-12-20T06:18:05;25.48;;;8.88;;
51854;SDS011;37895;53.240;6.572;2023-12-20T06:20:30;26.95;;;7.43;;
51854;SDS011;37895;53.240;6.572;2023-12-20T06:22:57;32.05;;;7.80;;
51854;SDS011;37895;53.240;6.572;2023-12-20T06:25:22;26.48;;;7.45;;
51854;SDS011;37895;53.240;6.572;2023-12-20T06:27:48;32.75;;;8.98;;
51854;SDS011;37895;53.240;6.572;2023-12-20T06:30:13;29.63;;;8.93;;
51854;SDS011;37895;53.240;6.572;2023-12-20T06:32:40;31.10;;;7.57;;
51854;SDS011;37895;53.240;6.572;2023-12-20T06:35:07;25.50;;;7.95;;
51854;SDS011;37895;53.240;6.572;2023-12-20T06:37:36;31.90;;;8.85;;
51854;SDS011;37895;53.240;6.572;2023-12-20T06:40:01;28.42;;;8.43;;
51854;SDS011;37895;53.240;6.572;2023-12-20T06:42:27;36.03;;;9.35;;
51854;SDS011;37895;53.240;6.572;2023-12-20T06:44:52;27.65;;;8.63;;
51854;SDS011;37895;53.240;6.572;2023-12-20T06:47:18;32.00;;;9.00;;
51854;SDS011;37895;53.240;6.572;2023-12-20T06:49:44;30.50;;;9.27;;
51854;SDS011;37895;53.240;6.572;2023-12-20T06:52:09;33.70;;;9.60;;
51854;SDS011;37895;53.240;6.572;2023-12-20T06:54:35;34.70;;;9.20;;
51854;SDS011;37895;53.240;6.572;2023-12-20T06:57:01;29.60;;;8.43;;
51854;SDS011;37895;53.240;6.572;2023-12-20T06:59:28;30.60;;;8.35;;
51854;SDS011;37895;53.240;6.572;2023-12-20T07:04:19;32.13;;;7.95;;
51854;SDS011;37895;53.240;6.572;2023-12-20T07:06:47;23.10;;;8.45;;
51854;SDS011;37895;53.240;6.572;2023-12-20T07:11:39;32.63;;;9.32;;
51854;SDS011;37895;53.240;6.572;2023-12-20T07:14:04;34.55;;;8.48;;
51854;SDS011;37895;53.240;6.572;2023-12-20T07:16:30;28.98;;;8.80;;
51854;SDS011;37895;53.240;6.572;2023-12-20T07:18:56;22.80;;;8.00;;
51854;SDS011;37895;53.240;6.572;2023-12-20T07:21:22;27.33;;;8.88;;
51854;SDS011;37895;53.240;6.572;2023-12-20T07:23:48;32.05;;;8.38;;
51854;SDS011;37895;53.240;6.572;2023-12-20T07:26:13;29.80;;;8.65;;
51854;SDS011;37895;53.240;6.572;2023-12-20T07:28:40;29.23;;;8.00;;
51854;SDS011;37895;53.240;6.572;2023-12-20T07:31:05;27.75;;;7.68;;
51854;SDS011;37895;53.240;6.572;2023-12-20T07:33:31;25.50;;;7.57;;
51854;SDS011;37895;53.240;6.572;2023-12-20T07:35:57;25.95;;;8.07;;
51854;SDS011;37895;53.240;6.572;2023-12-20T07:38:24;31.17;;;8.93;;
51854;SDS011;37895;53.240;6.572;2023-12-20T07:40:50;25.48;;;8.80;;
51854;SDS011;37895;53.240;6.572;2023-12-20T07:43:15;29.83;;;8.20;;
51854;SDS011;37895;53.240;6.572;2023-12-20T07:45:41;29.95;;;8.10;;
51854;SDS011;37895;53.240;6.572;2023-12-20T07:48:07;28.27;;;8.88;;
51854;SDS011;37895;53.240;6.572;2023-12-20T07:50:33;30.05;;;8.27;;
51854;SDS011;37895;53.240;6.572;2023-12-20T07:52:59;30.33;;;9.15;;
51854;SDS011;37895;53.240;6.572;2023-12-20T07:55:26;27.65;;;8.25;;
51854;SDS011;37895;53.240;6.572;2023-12-20T07:57:52;32.35;;;8.23;;
51854;SDS011;37895;53.240;6.572;2023-12-20T08:00:18;32.42;;;7.88;;
51854;SDS011;37895;53.240;6.572;2023-12-20T08:05:09;25.48;;;7.22;;
51854;SDS011;37895;53.240;6.572;2023-12-20T08:07:35;31.33;;;8.82;;
51854;SDS011;37895;53.240;6.572;2023-12-20T08:10:01;30.85;;;8.13;;
51854;SDS011;37895;53.240;6.572;2023-12-20T08:12:27;25.48;;;8.13;;
51854;SDS011;37895;53.240;6.572;2023-12-20T08:14:53;32.90;;;8.23;;
51854;SDS011;37895;53.240;6.572;2023-12-20T08:17:19;28.98;;;9.07;;
51854;SDS011;37895;53.240;6.572;2023-12-20T08:19:45;28.75;;;8.63;;
51854;SDS011;37895;53.240;6.572;2023-12-20T08:22:11;31.38;;;8.43;;
51854;SDS011;37895;53.240;6.572;2023-12-20T08:24:36;29.50;;;8.10;;
51854;SDS011;37895;53.240;6.572;2023-12-20T08:27:03;26.92;;;7.90;;
51854;SDS011;37895;53.240;6.572;2023-12-20T08:29:29;25.00;;;7.78;;
51854;SDS011;37895;53.240;6.572;2023-12-20T08:31:55;26.23;;;8.00;;
51854;SDS011;37895;53.240;6.572;2023-12-20T08:36:47;9.15;;;3.65;;
51854;SDS011;37895;53.240;6.572;2023-12-20T08:39:12;7.82;;;3.13;;
51854;SDS011;37895;53.240;6.572;2023-12-20T08:41:38;8.57;;;3.85;;
51854;SDS011;37895;53.240;6.572;2023-12-20T08:44:03;11.85;;;3.85;;
51854;SDS011;37895;53.240;6.572;2023-12-20T08:46:29;16.33;;;5.15;;
51854;SDS011;37895;53.240;6.572;2023-12-20T08:48:55;17.45;;;5.07;;
51854;SDS011;37895;53.240;6.572;2023-12-20T08:51:21;17.25;;;4.88;;
51854;SDS011;37895;53.240;6.572;2023-12-20T08:53:48;15.80;;;4.22;;
51854;SDS011;37895;53.240;6.572;2023-12-20T08:56:14;14.27;;;4.57;;
51854;SDS011;37895;53.240;6.572;2023-12-20T08:58:40;15.93;;;5.10;;
51854;SDS011;37895;53.240;6.572;2023-12-20T09:01:06;14.52;;;4.85;;
51854;SDS011;37895;53.240;6.572;2023-12-20T09:03:32;14.73;;;4.90;;
51854;SDS011;37895;53.240;6.572;2023-12-20T09:05:58;20.92;;;5.55;;
51854;SDS011;37895;53.240;6.572;2023-12-20T09:08:24;19.20;;;5.55;;
51854;SDS011;37895;53.240;6.572;2023-12-20T09:10:49;25.80;;;5.93;;
51854;SDS011;37895;53.240;6.572;2023-12-20T09:13:15;23.98;;;5.97;;
51854;SDS011;37895;53.240;6.572;2023-12-20T09:15:41;24.38;;;7.10;;
51854;SDS011;37895;53.240;6.572;2023-12-20T09:18:06;24.40;;;6.20;;
51854;SDS011;37895;53.240;6.572;2023-12-20T09:22:58;16.33;;;5.65;;
51854;SDS011;37895;53.240;6.572;2023-12-20T09:25:24;17.55;;;4.97;;
51854;SDS011;37895;53.240;6.572;2023-12-20T09:27:51;17.20;;;4.50;;
51854;SDS011;37895;53.240;6.572;2023-12-20T09:30:17;14.05;;;4.60;;
51854;SDS011;37895;53.240;6.572;2023-12-20T09:32:43;17.90;;;5.00;;
51854;SDS011;37895;53.240;6.572;2023-12-20T09:35:10;12.70;;;4.18;;
51854;SDS011;37895;53.240;6.572;2023-12-20T09:37:35;13.88;;;4.25;;
51854;SDS011;37895;53.240;6.572;2023-12-20T09:40:01;16.85;;;4.28;;
51854;SDS011;37895;53.240;6.572;2023-12-20T09:42:39;13.48;;;4.68;;
51854;SDS011;37895;53.240;6.572;2023-12-20T09:45:28;12.77;;;4.47;;
51854;SDS011;37895;53.240;6.572;2023-12-20T09:47:56;11.90;;;3.90;;
51854;SDS011;37895;53.240;6.572;2023-12-20T09:50:23;13.52;;;4.20;;
51854;SDS011;37895;53.240;6.572;2023-12-20T09:52:52;11.27;;;4.13;;
51854;SDS011;37895;53.240;6.572;2023-12-20T09:55:19;9.75;;;4.03;;
51854;SDS011;37895;53.240;6.572;2023-12-20T09:57:48;15.88;;;7.35;;
51854;SDS011;37895;53.240;6.572;2023-12-20T10:00:14;12.48;;;5.18;;
51854;SDS011;37895;53.240;6.572;2023-12-20T10:02:45;17.02;;;4.65;;
51854;SDS011;37895;53.240;6.572;2023-12-20T10:05:26;14.90;;;5.07;;
51854;SDS011;37895;53.240;6.572;2023-12-20T10:07:53;12.40;;;4.22;;
51854;SDS011;37895;53.240;6.572;2023-12-20T10:10:19;14.95;;;4.78;;
51854;SDS011;37895;53.240;6.572;2023-12-20T10:13:00;12.82;;;4.93;;
51854;SDS011;37895;53.240;6.572;2023-12-20T10:15:31;18.58;;;5.13;;
51854;SDS011;37895;53.240;6.572;2023-12-20T10:18:01;13.77;;;4.75;;
51854;SDS011;37895;53.240;6.572;2023-12-20T10:20:27;18.92;;;5.10;;
51854;SDS011;37895;53.240;6.572;2023-12-20T10:22:54;15.15;;;5.68;;
51854;SDS011;37895;53.240;6.572;2023-12-20T10:25:23;14.75;;;4.80;;
51854;SDS011;37895;53.240;6.572;2023-12-20T10:27:50;22.25;;;6.15;;
51854;SDS011;37895;53.240;6.572;2023-12-20T10:30:33;14.25;;;4.45;;
51854;SDS011;37895;53.240;6.572;2023-12-20T10:32:59;19.27;;;5.93;;
51854;SDS011;37895;53.240;6.572;2023-12-20T10:35:24;17.45;;;5.18;;
51854;SDS011;37895;53.240;6.572;2023-12-20T10:37:51;14.07;;;5.20;;
51854;SDS011;37895;53.240;6.572;2023-12-20T10:40:21;16.40;;;4.95;;
51854;SDS011;37895;53.240;6.572;2023-12-20T10:42:47;14.85;;;4.50;;
51854;SDS011;37895;53.240;6.572;2023-12-20T10:45:13;17.95;;;5.32;;
51854;SDS011;37895;53.240;6.572;2023-12-20T10:47:38;14.20;;;4.75;;
51854;SDS011;37895;53.240;6.572;2023-12-20T10:50:05;19.10;;;5.60;;
51854;SDS011;37895;53.240;6.572;2023-12-20T10:52:32;20.00;;;5.35;;
51854;SDS011;37895;53.240;6.572;2023-12-20T10:54:59;19.33;;;5.57;;
51854;SDS011;37895;53.240;6.572;2023-12-20T10:57:25;17.00;;;5.43;;
51854;SDS011;37895;53.240;6.572;2023-12-20T10:59:53;22.80;;;6.50;;
51854;SDS011;37895;53.240;6.572;2023-12-20T11:02:19;16.98;;;6.28;;
51854;SDS011;37895;53.240;6.572;2023-12-20T11:07:36;20.42;;;5.82;;
51854;SDS011;37895;53.240;6.572;2023-12-20T11:15:15;21.48;;;6.03;;
51854;SDS011;37895;53.240;6.572;2023-12-20T11:20:09;24.88;;;7.45;;
51854;SDS011;37895;53.240;6.572;2023-12-20T11:22:36;22.77;;;6.93;;
51854;SDS011;37895;53.240;6.572;2023-12-20T11:25:07;22.83;;;6.72;;
51854;SDS011;37895;53.240;6.572;2023-12-20T11:27:35;22.73;;;6.47;;
51854;SDS011;37895;53.240;6.572;2023-12-20T11:30:02;22.45;;;6.93;;
51854;SDS011;37895;53.240;6.572;2023-12-20T11:32:34;25.17;;;7.47;;
51854;SDS011;37895;53.240;6.572;2023-12-20T11:35:16;22.90;;;6.13;;
51854;SDS011;37895;53.240;6.572;2023-12-20T11:37:43;19.52;;;6.22;;
51854;SDS011;37895;53.240;6.572;2023-12-20T11:40:14;19.35;;;5.88;;
51854;SDS011;37895;53.240;6.572;2023-12-20T11:42:42;23.50;;;6.38;;
51854;SDS011;37895;53.240;6.572;2023-12-20T11:45:14;19.40;;;7.05;;
51854;SDS011;37895;53.240;6.572;2023-12-20T11:47:50;27.85;;;8.02;;
51854;SDS011;37895;53.240;6.572;2023-12-20T11:50:19;21.73;;;5.75;;
51854;SDS011;37895;53.240;6.572;2023-12-20T11:52:45;21.13;;;7.53;;
51854;SDS011;37895;53.240;6.572;2023-12-20T11:55:11;22.50;;;6.95;;
51854;SDS011;37895;53.240;6.572;2023-12-20T11:57:37;23.08;;;5.88;;
51854;SDS011;37895;53.240;6.572;2023-12-20T12:00:03;21.58;;;5.93;;
51854;SDS011;37895;53.240;6.572;2023-12-20T12:02:31;16.58;;;5.43;;
51854;SDS011;37895;53.240;6.572;2023-12-20T12:04:57;23.98;;;7.07;;
51854;SDS011;37895;53.240;6.572;2023-12-20T12:07:23;22.83;;;6.32;;
51854;SDS011;37895;53.240;6.572;2023-12-20T12:09:49;25.80;;;7.20;;
51854;SDS011;37895;53.240;6.572;2023-12-20T12:12:15;18.42;;;6.05;;
51854;SDS011;37895;53.240;6.572;2023-12-20T12:14:42;19.17;;;6.55;;
51854;SDS011;37895;53.240;6.572;2023-12-20T12:17:10;23.83;;;6.68;;
51854;SDS011;37895;53.240;6.572;2023-12-20T12:19:37;19.88;;;6.30;;
51854;SDS011;37895;53.240;6.572;2023-12-20T12:22:12;20.85;;;5.70;;
51854;SDS011;37895;53.240;6.572;2023-12-20T12:24:43;21.35;;;6.22;;
51854;SDS011;37895;53.240;6.572;2023-12-20T12:27:09;18.17;;;5.75;;
51854;SDS011;37895;53.240;6.572;2023-12-20T12:29:35;23.25;;;6.75;;
51854;SDS011;37895;53.240;6.572;2023-12-20T12:32:08;18.50;;;6.05;;
51854;SDS011;37895;53.240;6.572;2023-12-20T12:34:34;17.00;;;5.70;;
51854;SDS011;37895;53.240;6.572;2023-12-20T12:37:01;15.82;;;5.68;;
51854;SDS011;37895;53.240;6.572;2023-12-20T12:39:27;19.63;;;6.03;;
51854;SDS011;37895;53.240;6.572;2023-12-20T12:41:54;19.13;;;5.47;;
51854;SDS011;37895;53.240;6.572;2023-12-20T12:46:48;19.10;;;6.22;;
51854;SDS011;37895;53.240;6.572;2023-12-20T12:49:19;19.52;;;5.63;;
51854;SDS011;37895;53.240;6.572;2023-12-20T12:51:46;21.30;;;5.82;;
51854;SDS011;37895;53.240;6.572;2023-12-20T12:54:12;17.63;;;5.13;;
51854;SDS011;37895;53.240;6.572;2023-12-20T12:56:38;17.38;;;5.57;;
51854;SDS011;37895;53.240;6.572;2023-12-20T12:59:04;17.45;;;5.82;;
51854;SDS011;37895;53.240;6.572;2023-12-20T13:01:30;17.25;;;5.13;;
51854;SDS011;37895;53.240;6.572;2023-12-20T13:03:56;20.10;;;6.03;;
51854;SDS011;37895;53.240;6.572;2023-12-20T13:06:22;15.55;;;4.97;;
51854;SDS011;37895;53.240;6.572;2023-12-20T13:08:48;16.10;;;5.47;;
51854;SDS011;37895;53.240;6.572;2023-12-20T13:11:14;20.27;;;5.55;;
51854;SDS011;37895;53.240;6.572;2023-12-20T13:13:39;15.93;;;5.38;;
51854;SDS011;37895;53.240;6.572;2023-12-20T13:16:05;15.48;;;5.57;;
51854;SDS011;37895;53.240;6.572;2023-12-20T13:18:31;18.30;;;5.50;;
51854;SDS011;37895;53.240;6.572;2023-12-20T13:20:56;18.63;;;5.68;;
51854;SDS011;37895;53.240;6.572;2023-12-20T13:23:22;20.60;;;5.57;;
51854;SDS011;37895;53.240;6.572;2023-12-20T13:25:47;14.88;;;5.13;;
51854;SDS011;37895;53.240;6.572;2023-12-20T13:28:13;13.00;;;5.22;;
51854;SDS011;37895;53.240;6.572;2023-12-20T13:30:39;17.40;;;5.10;;
51854;SDS011;37895;53.240;6.572;2023-12-20T13:33:05;15.50;;;5.65;;
51854;SDS011;37895;53.240;6.572;2023-12-20T13:35:31;18.67;;;5.82;;
51854;SDS011;37895;53.240;6.572;2023-12-20T13:37:58;16.42;;;4.53;;
51854;SDS011;37895;53.240;6.572;2023-12-20T13:40:25;13.85;;;5.15;;
51854;SDS011;37895;53.240;6.572;2023-12-20T13:42:51;15.52;;;5.50;;
51854;SDS011;37895;53.240;6.572;2023-12-20T13:45:17;14.27;;;4.57;;
51854;SDS011;37895;53.240;6.572;2023-12-20T13:47:42;14.90;;;5.18;;
51854;SDS011;37895;53.240;6.572;2023-12-20T13:50:08;15.65;;;4.70;;
51854;SDS011;37895;53.240;6.572;2023-12-20T13:52:34;12.18;;;5.10;;
51854;SDS011;37895;53.240;6.572;2023-12-20T13:57:26;14.32;;;5.32;;
51854;SDS011;37895;53.240;6.572;2023-12-20T13:59:53;14.75;;;4.47;;
51854;SDS011;37895;53.240;6.572;2023-12-20T14:02:19;16.40;;;5.18;;
51854;SDS011;37895;53.240;6.572;2023-12-20T14:04:45;11.25;;;4.60;;
51854;SDS011;37895;53.240;6.572;2023-12-20T14:07:10;13.65;;;4.63;;
51854;SDS011;37895;53.240;6.572;2023-12-20T14:09:36;15.48;;;6.13;;
51854;SDS011;37895;53.240;6.572;2023-12-20T14:12:02;18.15;;;8.48;;
51854;SDS011;37895;53.240;6.572;2023-12-20T14:14:27;13.02;;;4.82;;
51854;SDS011;37895;53.240;6.572;2023-12-20T14:16:53;11.32;;;4.15;;
51854;SDS011;37895;53.240;6.572;2023-12-20T14:19:19;12.00;;;4.32;;
51854;SDS011;37895;53.240;6.572;2023-12-20T14:21:44;8.10;;;4.15;;
51854;SDS011;37895;53.240;6.572;2023-12-20T14:24:12;15.15;;;4.70;;
51854;SDS011;37895;53.240;6.572;2023-12-20T14:26:39;11.90;;;4.85;;
51854;SDS011;37895;53.240;6.572;2023-12-20T14:29:08;9.05;;;4.57;;
51854;SDS011;37895;53.240;6.572;2023-12-20T14:31:34;11.10;;;5.03;;
51854;SDS011;37895;53.240;6.572;2023-12-20T14:34:00;12.00;;;3.70;;
51854;SDS011;37895;53.240;6.572;2023-12-20T14:36:28;9.68;;;4.00;;
51854;SDS011;37895;53.240;6.572;2023-12-20T14:38:55;11.57;;;4.00;;
51854;SDS011;37895;53.240;6.572;2023-12-20T14:41:21;8.55;;;3.90;;
51854;SDS011;37895;53.240;6.572;2023-12-20T14:43:49;10.45;;;4.00;;
51854;SDS011;37895;53.240;6.572;2023-12-20T14:46:16;11.70;;;4.68;;
51854;SDS011;37895;53.240;6.572;2023-12-20T14:48:42;13.98;;;4.53;;
51854;SDS011;37895;53.240;6.572;2023-12-20T14:51:07;8.65;;;4.07;;
51854;SDS011;37895;53.240;6.572;2023-12-20T14:53:33;11.48;;;4.03;;
51854;SDS011;37895;53.240;6.572;2023-12-20T14:56:02;14.05;;;4.57;;
51854;SDS011;37895;53.240;6.572;2023-12-20T14:58:31;12.40;;;4.70;;
51854;SDS011;37895;53.240;6.572;2023-12-20T15:00:57;9.13;;;4.38;;
51854;SDS011;37895;53.240;6.572;2023-12-20T15:03:23;13.60;;;4.20;;
51854;SDS011;37895;53.240;6.572;2023-12-20T15:05:48;11.23;;;4.57;;